createdAt,value
2022-09-09T02:30:27.020Z,0
2022-09-09T02:31:26.969Z,0
2022-09-09T02:32:26.965Z,0
2022-09-09T02:33:26.966Z,0
2022-09-09T02:34:26.955Z,0
2022-09-09T02:35:26.954Z,0
2022-09-09T02:36:26.956Z,0
2022-09-09T02:37:26.973Z,0
2022-09-09T02:38:26.952Z,0
2022-09-09T02:39:26.949Z,0
2022-09-09T02:40:26.951Z,0
2022-09-09T02:41:26.958Z,0
2022-09-09T02:42:26.969Z,0
2022-09-09T02:43:26.983Z,0
2022-09-09T02:44:26.963Z,0
2022-09-09T02:45:26.952Z,0
2022-09-09T02:46:26.969Z,0
2022-09-09T02:47:26.982Z,0
2022-09-09T02:48:26.986Z,0
2022-09-09T02:49:26.962Z,0
2022-09-09T02:50:26.968Z,0
2022-09-09T02:51:26.965Z,0
2022-09-09T02:52:26.981Z,0
2022-09-09T02:53:26.961Z,0
2022-09-09T02:54:26.962Z,0
2022-09-09T02:55:26.961Z,0
2022-09-09T02:56:26.967Z,0
2022-09-09T02:57:27.004Z,0
2022-09-09T02:58:26.992Z,0
2022-09-09T02:59:27.002Z,0
2022-09-09T03:00:26.994Z,0
2022-09-09T03:01:27.062Z,0
2022-09-09T03:02:27.129Z,0
2022-09-09T03:03:27.051Z,0
2022-09-09T03:04:27.036Z,0
2022-09-09T03:05:27.039Z,0
2022-09-09T03:06:27.048Z,0
2022-09-09T03:07:27.073Z,0
2022-09-09T03:08:27.057Z,0
2022-09-09T03:09:27.056Z,0
2022-09-09T03:10:27.059Z,0
2022-09-09T03:11:27.062Z,0
2022-09-09T03:12:27.082Z,0
2022-09-09T03:13:27.074Z,0
2022-09-09T03:14:27.155Z,0
2022-09-09T03:15:27.057Z,0
2022-09-09T03:16:27.121Z,0
2022-09-09T03:17:27.087Z,0
2022-09-09T03:18:27.097Z,0
2022-09-09T03:19:27.087Z,0
2022-09-09T03:20:27.083Z,0
2022-09-09T03:21:27.082Z,0
2022-09-09T03:22:27.107Z,0
2022-09-09T03:23:27.080Z,0
2022-09-09T03:24:27.099Z,0
2022-09-09T03:25:27.076Z,0
2022-09-09T03:26:27.094Z,0
2022-09-09T03:27:27.116Z,0
2022-09-09T03:28:27.103Z,0
2022-09-09T03:29:27.107Z,0
2022-09-09T03:30:27.088Z,0
2022-09-09T03:31:27.120Z,0
2022-09-09T03:32:27.342Z,0
2022-09-09T03:33:27.104Z,0
2022-09-09T03:34:27.077Z,0
2022-09-09T03:35:27.110Z,0
2022-09-09T03:36:27.087Z,0
2022-09-09T03:37:27.097Z,0
2022-09-09T03:38:27.098Z,0
2022-09-09T03:39:27.082Z,0
2022-09-09T03:40:27.078Z,0
2022-09-09T03:41:27.084Z,0
2022-09-09T03:42:27.100Z,0
2022-09-09T03:43:27.084Z,0
2022-09-09T03:44:27.077Z,0
2022-09-09T03:45:27.148Z,0
2022-09-09T03:46:27.077Z,0
2022-09-09T03:47:27.103Z,0
2022-09-09T03:48:27.093Z,0
2022-09-09T03:49:27.063Z,0
2022-09-09T03:50:27.065Z,0
2022-09-09T03:51:27.069Z,0
2022-09-09T03:52:27.077Z,0
2022-09-09T03:53:27.060Z,0
2022-09-09T03:54:27.061Z,0
2022-09-09T03:55:27.059Z,0
2022-09-09T03:56:27.062Z,0
2022-09-09T03:57:27.078Z,0
2022-09-09T03:58:27.061Z,0
2022-09-09T03:59:27.072Z,0
2022-09-09T04:00:27.080Z,1
2022-09-09T04:01:27.099Z,1
2022-09-09T04:02:27.210Z,1
2022-09-09T04:03:28.199Z,3
2022-09-09T04:04:27.064Z,5
2022-09-09T04:05:27.073Z,7
2022-09-09T04:06:27.068Z,9
2022-09-09T04:07:27.093Z,11
2022-09-09T04:08:27.068Z,12
2022-09-09T04:09:27.071Z,16
2022-09-09T04:10:27.091Z,20
2022-09-09T04:11:27.077Z,23
2022-09-09T04:12:27.089Z,29
2022-09-09T04:13:27.069Z,35
2022-09-09T04:14:27.067Z,42
2022-09-09T04:15:27.073Z,47
2022-09-09T04:16:27.151Z,57
2022-09-09T04:17:27.086Z,68
2022-09-09T04:18:27.087Z,68
2022-09-09T04:19:27.062Z,88
2022-09-09T04:20:27.060Z,101
2022-09-09T04:21:27.223Z,114
2022-09-09T04:22:27.086Z,114
2022-09-09T04:23:27.049Z,114
2022-09-09T04:24:27.052Z,114
2022-09-09T04:25:27.058Z,114
2022-09-09T04:26:27.053Z,114
2022-09-09T04:27:27.072Z,114
2022-09-09T04:28:27.081Z,114
2022-09-09T04:29:27.054Z,114
2022-09-09T04:30:27.071Z,114
2022-09-09T04:31:27.090Z,114
2022-09-09T04:32:27.068Z,114
2022-09-09T04:33:27.246Z,114
2022-09-09T04:34:27.088Z,114
2022-09-09T04:35:27.055Z,114
2022-09-09T04:36:27.055Z,114
2022-09-09T04:37:27.068Z,114
2022-09-09T04:38:27.053Z,114
2022-09-09T04:39:27.049Z,114
2022-09-09T04:40:27.067Z,114
2022-09-09T04:41:27.052Z,114
2022-09-09T04:42:27.078Z,114
2022-09-09T04:43:27.052Z,114
2022-09-09T04:44:27.053Z,114
2022-09-09T04:45:27.068Z,114
2022-09-09T04:46:27.055Z,114
2022-09-09T04:47:27.067Z,114
2022-09-09T04:48:27.054Z,114
2022-09-09T04:49:27.064Z,114
2022-09-09T04:50:27.052Z,114
2022-09-09T04:51:27.048Z,114
2022-09-09T04:52:27.114Z,114
2022-09-09T04:53:27.044Z,114
2022-09-09T04:54:27.049Z,114
2022-09-09T04:55:27.044Z,114
2022-09-09T04:56:27.044Z,114
2022-09-09T04:57:27.051Z,114
2022-09-09T04:58:27.053Z,114
2022-09-09T04:59:27.045Z,114
2022-09-09T05:00:27.053Z,114
2022-09-09T05:01:27.129Z,114
2022-09-09T05:02:31.359Z,114
2022-09-09T05:03:27.045Z,114
2022-09-09T05:04:27.062Z,114
2022-09-09T05:05:27.045Z,114
2022-09-09T05:06:27.045Z,114
2022-09-09T05:07:27.062Z,114
2022-09-09T05:08:27.047Z,114
2022-09-09T05:09:27.086Z,114
2022-09-09T05:10:27.056Z,114
2022-09-09T05:11:27.044Z,114
2022-09-09T05:12:27.065Z,114
2022-09-09T05:13:27.053Z,114
2022-09-09T05:14:27.050Z,114
2022-09-09T05:15:27.096Z,114
2022-09-09T05:16:27.116Z,114
2022-09-09T05:17:27.060Z,114
2022-09-09T05:18:27.050Z,114
2022-09-09T05:19:27.067Z,114
2022-09-09T05:20:27.044Z,114
2022-09-09T05:21:27.044Z,114
2022-09-09T05:22:27.062Z,114
2022-09-09T05:23:27.050Z,114
2022-09-09T05:24:27.050Z,114
2022-09-09T05:25:27.127Z,114
2022-09-09T05:26:27.045Z,114
2022-09-09T05:27:27.068Z,114
2022-09-09T05:28:27.062Z,114
2022-09-09T05:29:27.117Z,114
2022-09-09T05:30:27.067Z,114
2022-09-09T05:31:27.290Z,114
2022-09-09T05:32:27.068Z,114
2022-09-09T05:33:27.048Z,114
2022-09-09T05:34:27.072Z,114
2022-09-09T05:35:27.043Z,114
2022-09-09T05:36:27.055Z,114
2022-09-09T05:37:27.063Z,114
2022-09-09T05:38:28.749Z,114
2022-09-09T05:39:27.046Z,114
2022-09-09T05:40:27.045Z,114
2022-09-09T05:41:27.050Z,114
2022-09-09T05:42:27.060Z,114
2022-09-09T05:43:27.046Z,114
2022-09-09T05:44:27.047Z,114
2022-09-09T05:45:27.049Z,114
2022-09-09T05:46:27.141Z,114
2022-09-09T05:47:27.065Z,114
2022-09-09T05:48:27.044Z,114
2022-09-09T05:49:27.079Z,114
2022-09-09T05:50:31.458Z,114
2022-09-09T05:51:27.049Z,114
2022-09-09T05:52:27.063Z,114
2022-09-09T05:53:27.046Z,114
2022-09-09T05:54:27.046Z,114
2022-09-09T05:55:27.048Z,114
2022-09-09T05:56:27.045Z,114
2022-09-09T05:57:27.058Z,114
2022-09-09T05:58:27.067Z,114
2022-09-09T05:59:27.047Z,114
2022-09-09T06:00:27.054Z,114
2022-09-09T06:01:27.044Z,114
2022-09-09T06:02:27.298Z,114
2022-09-09T06:03:27.046Z,114
2022-09-09T06:04:27.062Z,114
2022-09-09T06:05:27.047Z,114
2022-09-09T06:06:27.106Z,114
2022-09-09T06:07:27.060Z,114
2022-09-09T06:08:27.044Z,114
2022-09-09T06:09:27.042Z,114
2022-09-09T06:10:27.170Z,114
2022-09-09T06:11:27.046Z,114
2022-09-09T06:12:27.062Z,114
2022-09-09T06:13:27.060Z,114
2022-09-09T06:14:27.052Z,114
2022-09-09T06:15:27.049Z,114
2022-09-09T06:16:27.121Z,114
2022-09-09T06:17:27.066Z,114
2022-09-09T06:18:27.063Z,114
2022-09-09T06:19:27.066Z,114
2022-09-09T06:20:27.135Z,114
2022-09-09T06:21:27.042Z,114
2022-09-09T06:22:27.060Z,114
2022-09-09T06:23:27.049Z,114
2022-09-09T06:24:27.050Z,114
2022-09-09T06:25:27.043Z,114
2022-09-09T06:26:27.049Z,114
2022-09-09T06:27:27.065Z,114
2022-09-09T06:28:27.050Z,114
2022-09-09T06:29:27.047Z,114
2022-09-09T06:30:27.059Z,114
2022-09-09T06:31:29.900Z,114
2022-09-09T06:32:27.060Z,114
2022-09-09T06:33:27.051Z,114
2022-09-09T06:34:27.064Z,114
2022-09-09T06:35:27.049Z,114
2022-09-09T06:36:27.062Z,114
2022-09-09T06:37:27.061Z,114
2022-09-09T06:38:27.050Z,114
2022-09-09T06:39:27.047Z,114
2022-09-09T06:40:27.064Z,114
2022-09-09T06:41:27.048Z,114
2022-09-09T06:42:27.075Z,114
2022-09-09T06:43:27.052Z,114
2022-09-09T06:44:27.049Z,114
2022-09-09T06:45:27.045Z,114
2022-09-09T06:46:27.073Z,114
2022-09-09T06:47:27.061Z,114
2022-09-09T06:48:27.061Z,13389
2022-09-09T06:49:27.065Z,13569
2022-09-09T06:50:45.833Z,13304
2022-09-09T06:51:44.741Z,14048
2022-09-09T06:52:44.738Z,13772
2022-09-09T06:53:44.732Z,14347
2022-09-09T06:54:44.716Z,14319
2022-09-09T06:55:44.704Z,14513
2022-09-09T06:56:44.712Z,14559
2022-09-09T06:57:44.730Z,13975
2022-09-09T06:58:44.707Z,14929
2022-09-09T06:59:44.709Z,13475
2022-09-09T07:00:44.770Z,11531
2022-09-09T07:01:44.943Z,10342
2022-09-09T07:02:44.719Z,14133
2022-09-09T07:03:44.703Z,14216
2022-09-09T07:04:44.712Z,14552
2022-09-09T07:05:44.716Z,14196
2022-09-09T07:06:44.704Z,14194
2022-09-09T07:07:44.716Z,14564
2022-09-09T07:08:55.314Z,15081
2022-09-09T07:09:44.710Z,14959
2022-09-09T07:10:44.706Z,15438
2022-09-09T07:11:44.704Z,15626
2022-09-09T07:12:44.704Z,15790
2022-09-09T07:13:44.697Z,15405
2022-09-09T07:14:44.701Z,15858
2022-09-09T07:15:44.742Z,16032
2022-09-09T07:16:44.692Z,15634
2022-09-09T07:17:44.718Z,14869
2022-09-09T07:18:44.702Z,14469
2022-09-09T07:19:44.719Z,12915
2022-09-09T07:20:44.685Z,11969
2022-09-09T07:21:44.701Z,10814
2022-09-09T07:22:44.722Z,12990
2022-09-09T07:23:44.691Z,12972
2022-09-09T07:24:44.702Z,12531
2022-09-09T07:25:44.706Z,8943
2022-09-09T07:26:44.685Z,9802
2022-09-09T07:27:44.695Z,7212
2022-09-09T07:28:44.685Z,9133
2022-09-09T07:29:44.689Z,9339
2022-09-09T07:30:44.683Z,7334
2022-09-09T07:31:44.746Z,6180
2022-09-09T07:32:44.710Z,6652
2022-09-09T07:33:44.701Z,6508
2022-09-09T07:34:44.717Z,8281
2022-09-09T07:35:45.012Z,7785
2022-09-09T07:36:44.682Z,6735
2022-09-09T07:37:48.910Z,10828
2022-09-09T07:38:44.714Z,12052
2022-09-09T07:39:44.718Z,12568
2022-09-09T07:40:44.688Z,12716
2022-09-09T07:41:44.684Z,12673
2022-09-09T07:42:45.161Z,12683
2022-09-09T07:43:44.684Z,12887
2022-09-09T07:44:44.693Z,12965
2022-09-09T07:45:44.709Z,13158
2022-09-09T07:46:44.771Z,13188
2022-09-09T07:47:44.710Z,13188
2022-09-09T07:48:44.694Z,13243
2022-09-09T07:49:44.724Z,13807
2022-09-09T07:50:44.691Z,13293
2022-09-09T07:51:45.043Z,13860
2022-09-09T07:52:44.709Z,13938
2022-09-09T07:53:44.697Z,13967
2022-09-09T07:54:44.706Z,14122
2022-09-09T07:55:44.697Z,14218
2022-09-09T07:56:44.694Z,14141
2022-09-09T07:57:44.726Z,13895
2022-09-09T07:58:44.697Z,15114
2022-09-09T07:59:44.700Z,14791
2022-09-09T08:00:44.695Z,14705
2022-09-09T08:01:44.752Z,15064
2022-09-09T08:02:44.822Z,14835
2022-09-09T08:03:44.701Z,14721
2022-09-09T08:04:44.719Z,14863
2022-09-09T08:05:44.695Z,14902
2022-09-09T08:06:44.691Z,15077
2022-09-09T08:07:44.711Z,15202
2022-09-09T08:08:44.698Z,15289
2022-09-09T08:09:44.701Z,15374
2022-09-09T08:10:44.694Z,15482
2022-09-09T08:11:44.691Z,15713
2022-09-09T08:13:01.539Z,15696
2022-09-09T08:13:44.690Z,15836
2022-09-09T08:14:44.696Z,15888
2022-09-09T08:15:44.727Z,16039
2022-09-09T08:16:44.699Z,16144
2022-09-09T08:17:44.710Z,16205
2022-09-09T08:18:44.700Z,16227
2022-09-09T08:19:44.711Z,16369
2022-09-09T08:20:44.693Z,16498
2022-09-09T08:21:44.697Z,16496
2022-09-09T08:22:44.712Z,16586
2022-09-09T08:23:44.703Z,16526
2022-09-09T08:24:44.688Z,16190
2022-09-09T08:25:44.688Z,16325
2022-09-09T08:26:44.703Z,16389
2022-09-09T08:27:44.709Z,16332
2022-09-09T08:28:44.782Z,16424
2022-09-09T08:29:44.702Z,16575
2022-09-09T08:30:44.696Z,15975
2022-09-09T08:31:44.701Z,16668
2022-09-09T08:32:46.008Z,16113
2022-09-09T08:33:44.694Z,16275
2022-09-09T08:34:46.600Z,17313
2022-09-09T08:35:44.687Z,18726
2022-09-09T08:36:44.701Z,17515
2022-09-09T08:37:44.706Z,17587
2022-09-09T08:38:44.681Z,17587
2022-09-09T08:39:44.720Z,17724
2022-09-09T08:40:44.683Z,18037
2022-09-09T08:41:44.690Z,17949
2022-09-09T08:42:44.703Z,18039
2022-09-09T08:43:44.674Z,18020
2022-09-09T08:44:48.740Z,18013
2022-09-09T08:45:44.678Z,17773
2022-09-09T08:46:44.726Z,17860
2022-09-09T08:47:44.696Z,17860
2022-09-09T08:48:44.680Z,17855
2022-09-09T08:49:44.695Z,18028
2022-09-09T08:50:44.676Z,18144
2022-09-09T08:51:44.682Z,18223
2022-09-09T08:52:44.701Z,18297
2022-09-09T08:53:44.700Z,18540
2022-09-09T08:54:52.145Z,18634
2022-09-09T08:55:44.863Z,18747
2022-09-09T08:56:44.693Z,18819
2022-09-09T08:57:44.734Z,17912
2022-09-09T08:58:44.693Z,19243
2022-09-09T08:59:44.690Z,19473
2022-09-09T09:00:44.689Z,14504
2022-09-09T09:01:44.766Z,15943
2022-09-09T09:02:44.710Z,12990
2022-09-09T09:03:44.691Z,16481
2022-09-09T09:04:44.725Z,17455
2022-09-09T09:05:44.868Z,15639
2022-09-09T09:06:44.698Z,16939
2022-09-09T09:07:44.712Z,16164
2022-09-09T09:08:44.694Z,18964
2022-09-09T09:09:44.689Z,18911
2022-09-09T09:10:44.898Z,19768
2022-09-09T09:11:44.686Z,17982
2022-09-09T09:12:44.709Z,19687
2022-09-09T09:13:44.693Z,19849
2022-09-09T09:14:45.220Z,15820
2022-09-09T09:15:44.721Z,18684
2022-09-09T09:16:44.689Z,19443
2022-09-09T09:17:44.779Z,19449
2022-09-09T09:18:44.686Z,19502
2022-09-09T09:19:44.710Z,19539
2022-09-09T09:20:44.687Z,19560
2022-09-09T09:21:44.693Z,19637
2022-09-09T09:22:44.756Z,19646
2022-09-09T09:23:44.750Z,19709
2022-09-09T09:24:44.700Z,19541
2022-09-09T09:25:44.701Z,19528
2022-09-09T09:26:44.687Z,19545
2022-09-09T09:27:44.705Z,19552
2022-09-09T09:28:44.691Z,19548
2022-09-09T09:30:03.768Z,19515
2022-09-09T09:30:44.767Z,19547
2022-09-09T09:31:44.691Z,19469
2022-09-09T09:32:44.700Z,19607
2022-09-09T09:33:44.699Z,20448
2022-09-09T09:34:44.713Z,20389
2022-09-09T09:35:44.949Z,19965
2022-09-09T09:36:44.691Z,19869
2022-09-09T09:40:44.693Z,19917
2022-09-09T09:41:44.683Z,19875
2022-09-09T09:42:44.985Z,19866
2022-09-09T09:43:44.696Z,19823
2022-09-09T09:44:44.694Z,19759
2022-09-09T09:45:55.320Z,19670
2022-09-09T09:46:44.741Z,19613
2022-09-09T09:47:44.709Z,19613
2022-09-09T09:48:44.683Z,19639
2022-09-09T09:49:45.111Z,19718
2022-09-09T09:50:44.674Z,19716
2022-09-09T09:51:44.683Z,19790
2022-09-09T09:52:44.692Z,19812
2022-09-09T09:53:44.677Z,19746
2022-09-09T09:54:44.987Z,19770
2022-09-09T09:55:44.681Z,19939
2022-09-09T09:56:44.711Z,19856
2022-09-09T09:57:44.719Z,19707
2022-09-09T09:58:44.678Z,19694
2022-09-09T09:59:45.100Z,19808
2022-09-09T10:00:44.688Z,19805
2022-09-09T10:01:44.747Z,19836
2022-09-09T10:02:44.715Z,19854
2022-09-09T10:03:44.747Z,19867
2022-09-09T10:04:45.112Z,19884
2022-09-09T10:05:44.699Z,19783
2022-09-09T10:06:44.696Z,19795
2022-09-09T10:07:44.710Z,19830
2022-09-09T10:08:44.693Z,19843
2022-09-09T10:09:44.694Z,19772
2022-09-09T10:10:47.957Z,19823
2022-09-09T10:11:44.693Z,19830
2022-09-09T10:12:44.697Z,19805
2022-09-09T10:13:44.737Z,19731
2022-09-09T10:14:44.694Z,19711
2022-09-09T10:15:44.743Z,19453
2022-09-09T10:16:44.696Z,20938
2022-09-09T10:17:44.707Z,20468
2022-09-09T10:18:44.683Z,20212
2022-09-09T10:19:44.717Z,20037
2022-09-09T10:20:44.682Z,20225
2022-09-09T10:21:44.696Z,19926
2022-09-09T10:22:44.708Z,19945
2022-09-09T10:23:44.695Z,20077
2022-09-09T10:24:44.750Z,19705
2022-09-09T10:25:44.694Z,19784
2022-09-09T10:26:44.721Z,19611
2022-09-09T10:27:44.706Z,19429
2022-09-09T10:28:44.689Z,19357
2022-09-09T10:29:44.693Z,19209
2022-09-09T10:30:44.761Z,19104
2022-09-09T10:31:44.863Z,19062
2022-09-09T10:32:44.708Z,15812
2022-09-09T10:33:44.690Z,16373
2022-09-09T10:34:44.716Z,19005
2022-09-09T10:35:44.688Z,19025
2022-09-09T10:36:44.880Z,19055
2022-09-09T10:37:44.712Z,19108
2022-09-09T10:38:44.690Z,19185
2022-09-09T10:39:44.748Z,19239
2022-09-09T10:40:44.689Z,19281
2022-09-09T10:41:44.974Z,19316
2022-09-09T10:42:44.712Z,19364
2022-09-09T10:43:45.090Z,19340
2022-09-09T10:44:44.696Z,19281
2022-09-09T10:45:44.722Z,19243
2022-09-09T10:46:44.700Z,19773
2022-09-09T10:47:44.714Z,19773
2022-09-09T10:48:44.870Z,19714
2022-09-09T10:49:44.706Z,19845
2022-09-09T10:51:00.947Z,19895
2022-09-09T10:51:44.681Z,19830
2022-09-09T10:52:44.709Z,19910
2022-09-09T10:53:45.050Z,20348
2022-09-09T10:54:44.694Z,20297
2022-09-09T10:55:44.695Z,20155
2022-09-09T10:56:44.681Z,18371
2022-09-09T10:57:44.690Z,20374
2022-09-09T10:58:45.055Z,20359
2022-09-09T10:59:44.673Z,20044
2022-09-09T11:00:44.674Z,20042
2022-09-09T11:01:44.711Z,20159
2022-09-09T11:02:44.691Z,20148
2022-09-09T11:03:45.026Z,20030
2022-09-09T11:04:44.703Z,20026
2022-09-09T11:05:44.679Z,20055
2022-09-09T11:06:44.734Z,20052
2022-09-09T11:07:44.692Z,20225
2022-09-09T11:08:45.015Z,20756
2022-09-09T11:09:44.677Z,20448
2022-09-09T11:10:44.684Z,20452
2022-09-09T11:11:44.692Z,20424
2022-09-09T11:12:44.786Z,20216
2022-09-09T11:13:45.086Z,20175
2022-09-09T11:14:44.691Z,20254
2022-09-09T11:15:44.697Z,20240
2022-09-09T11:16:44.770Z,20363
2022-09-09T11:17:44.705Z,20354
2022-09-09T11:18:44.985Z,20369
2022-09-09T11:19:44.737Z,20396
2022-09-09T11:20:44.688Z,20444
2022-09-09T11:21:44.694Z,20437
2022-09-09T11:22:44.703Z,20535
2022-09-09T11:23:45.031Z,20905
2022-09-09T11:24:44.697Z,19713
2022-09-09T11:25:44.735Z,19770
2022-09-09T11:26:44.707Z,20289
2022-09-09T11:27:44.700Z,20240
2022-09-09T11:28:45.012Z,20321
2022-09-09T11:29:44.697Z,20358
2022-09-09T11:30:56.085Z,20334
2022-09-09T11:31:44.712Z,20195
2022-09-09T11:32:44.700Z,20173
2022-09-09T11:33:45.061Z,20278
2022-09-09T11:34:44.702Z,20105
2022-09-09T11:35:44.693Z,20171
2022-09-09T11:36:44.694Z,20256
2022-09-09T11:37:44.741Z,9328
2022-09-09T11:38:44.693Z,19460
2022-09-09T11:39:44.711Z,19432
2022-09-09T11:40:44.682Z,20457
2022-09-09T11:41:44.690Z,7087
2022-09-09T11:42:44.718Z,19972
2022-09-09T11:43:44.734Z,20535
2022-09-09T11:44:44.691Z,7315
2022-09-09T11:45:44.755Z,8045
2022-09-09T11:46:44.687Z,7429
2022-09-09T11:47:44.723Z,7429
2022-09-09T11:48:44.694Z,6559
2022-09-09T11:49:44.710Z,7181
2022-09-09T11:50:44.689Z,7686
2022-09-09T11:51:44.692Z,16704
2022-09-09T11:52:44.698Z,20369
2022-09-09T11:53:44.696Z,8664
2022-09-09T11:54:44.690Z,20070
2022-09-09T11:55:44.691Z,11320
2022-09-09T11:56:44.684Z,19650
2022-09-09T11:57:49.027Z,19486
2022-09-09T11:58:44.696Z,18957
2022-09-09T11:59:44.686Z,19823
2022-09-09T12:00:44.783Z,19436
2022-09-09T12:01:44.687Z,19337
2022-09-09T12:02:44.725Z,19200
2022-09-09T12:03:44.767Z,17832
2022-09-09T12:04:44.780Z,18931
2022-09-09T12:05:44.673Z,7693
2022-09-09T12:06:44.678Z,12887
2022-09-09T12:07:44.698Z,10933
2022-09-09T12:08:44.760Z,10657
2022-09-09T12:09:44.682Z,9512
2022-09-09T12:10:44.697Z,8333
2022-09-09T12:11:44.680Z,8395
2022-09-09T12:12:44.704Z,7936
2022-09-09T12:13:44.681Z,16680
2022-09-09T12:14:44.677Z,15967
2022-09-09T12:15:44.673Z,17150
2022-09-09T12:16:44.772Z,15141
2022-09-09T12:17:44.707Z,14006
2022-09-09T12:18:44.744Z,15639
2022-09-09T12:19:44.715Z,18603
2022-09-09T12:20:44.678Z,16347
2022-09-09T12:21:44.690Z,10952
2022-09-09T12:22:44.705Z,11350
2022-09-09T12:23:44.694Z,10043
2022-09-09T12:24:44.695Z,7553
2022-09-09T12:25:44.699Z,7756
2022-09-09T12:26:45.292Z,6928
2022-09-09T12:27:44.705Z,6331
2022-09-09T12:28:44.689Z,6075
2022-09-09T12:29:44.705Z,6038
2022-09-09T12:30:44.721Z,6314
2022-09-09T12:31:45.827Z,6768
2022-09-09T12:32:44.715Z,6862
2022-09-09T12:33:44.695Z,6954
2022-09-09T12:34:44.709Z,7616
2022-09-09T12:35:44.893Z,23003
2022-09-09T12:36:44.691Z,23041
2022-09-09T12:37:44.756Z,23611
2022-09-09T12:38:44.696Z,23565
2022-09-09T12:39:44.748Z,23198
2022-09-09T12:40:44.693Z,22826
2022-09-09T12:41:44.690Z,22230
2022-09-09T12:42:44.709Z,21832
2022-09-09T12:43:44.691Z,21950
2022-09-09T12:44:44.690Z,21674
2022-09-09T12:45:44.699Z,21311
2022-09-09T12:46:44.695Z,22815
2022-09-09T12:47:44.704Z,22815
2022-09-09T12:48:44.691Z,21491
2022-09-09T12:49:44.715Z,22192
2022-09-09T12:50:44.715Z,21476
2022-09-09T12:51:44.694Z,21421
2022-09-09T12:52:45.020Z,21161
2022-09-09T12:53:44.688Z,21038
2022-09-09T12:54:44.690Z,20796
2022-09-09T12:55:44.749Z,20649
2022-09-09T12:56:44.693Z,20732
2022-09-09T12:57:44.700Z,20295
2022-09-09T12:58:44.688Z,19182
2022-09-09T12:59:44.701Z,14059
2022-09-09T13:00:44.762Z,5977
2022-09-09T13:01:44.817Z,6005
2022-09-09T13:02:44.722Z,5861
2022-09-09T13:03:44.693Z,5595
2022-09-09T13:04:45.067Z,5468
2022-09-09T13:05:44.691Z,5286
2022-09-09T13:06:44.689Z,5015
2022-09-09T13:07:44.704Z,4731
2022-09-09T13:08:44.693Z,4578
2022-09-09T13:09:45.147Z,4421
2022-09-09T13:10:53.631Z,4353
2022-09-09T13:11:44.691Z,4265
2022-09-09T13:12:44.699Z,4267
2022-09-09T13:13:44.680Z,4270
2022-09-09T13:14:44.674Z,4169
2022-09-09T13:15:44.673Z,4233
2022-09-09T13:16:44.715Z,4084
2022-09-09T13:17:44.687Z,3820
2022-09-09T13:18:44.679Z,3575
2022-09-09T13:19:44.690Z,3420
2022-09-09T13:20:44.678Z,3277
2022-09-09T13:21:44.678Z,3162
2022-09-09T13:22:44.695Z,3039
2022-09-09T13:23:44.676Z,2910
2022-09-09T13:24:44.672Z,2774
2022-09-09T13:25:44.683Z,2715
2022-09-09T13:26:44.881Z,2707
2022-09-09T13:27:44.686Z,2731
2022-09-09T13:28:44.687Z,2742
2022-09-09T13:29:44.694Z,2737
2022-09-09T13:30:44.776Z,2727
2022-09-09T13:31:44.691Z,2759
2022-09-09T13:32:44.722Z,2733
2022-09-09T13:33:44.685Z,2737
2022-09-09T13:34:44.704Z,2759
2022-09-09T13:35:44.699Z,2954
2022-09-09T13:36:44.715Z,3070
2022-09-09T13:37:44.703Z,3266
2022-09-09T13:38:44.702Z,3550
2022-09-09T13:39:44.745Z,3918
2022-09-09T13:40:44.690Z,4307
2022-09-09T13:41:44.691Z,4759
2022-09-09T13:42:44.712Z,5146
2022-09-09T13:43:44.697Z,5905
2022-09-09T13:44:44.683Z,7149
2022-09-09T13:45:44.738Z,7975
2022-09-09T13:46:44.685Z,8152
2022-09-09T13:47:44.702Z,8152
2022-09-09T13:48:44.697Z,8224
2022-09-09T13:49:44.706Z,8384
2022-09-09T13:50:44.696Z,8432
2022-09-09T13:51:44.697Z,8569
2022-09-09T13:52:44.756Z,8452
2022-09-09T13:53:44.699Z,9186
2022-09-09T13:54:44.687Z,12791
2022-09-09T13:55:47.294Z,15084
2022-09-09T13:56:44.695Z,16658
2022-09-09T13:57:44.703Z,20378
2022-09-09T13:58:44.700Z,20717
2022-09-09T14:00:03.529Z,19760
2022-09-09T14:00:44.781Z,20367
2022-09-09T14:01:44.693Z,19204
2022-09-09T14:02:44.760Z,11903
2022-09-09T14:03:44.691Z,9392
2022-09-09T14:04:44.713Z,9663
2022-09-09T14:05:44.695Z,11175
2022-09-09T14:06:44.688Z,10198
2022-09-09T14:07:44.709Z,9490
2022-09-09T14:08:44.689Z,8404
2022-09-09T14:09:44.691Z,8159
2022-09-09T14:10:44.759Z,8296
2022-09-09T14:11:44.695Z,8574
2022-09-09T14:12:44.705Z,7859
2022-09-09T14:13:45.126Z,7424
2022-09-09T14:14:44.681Z,7826
2022-09-09T14:15:44.726Z,8233
2022-09-09T14:16:44.690Z,9735
2022-09-09T14:17:44.701Z,14253
2022-09-09T14:18:44.679Z,12679
2022-09-09T14:19:44.704Z,18822
2022-09-09T14:20:44.918Z,19383
2022-09-09T14:21:44.681Z,19311
2022-09-09T14:22:45.022Z,17993
2022-09-09T14:23:44.676Z,18319
2022-09-09T14:24:44.674Z,16424
2022-09-09T14:25:44.766Z,17832
2022-09-09T14:26:44.685Z,16996
2022-09-09T14:27:45.159Z,12498
2022-09-09T14:28:54.890Z,18220
2022-09-09T14:29:44.973Z,18234
2022-09-09T14:30:44.727Z,8346
2022-09-09T14:31:44.683Z,9424
2022-09-09T14:32:44.694Z,17950
2022-09-09T14:33:44.673Z,18149
2022-09-09T14:34:45.260Z,13613
2022-09-09T14:35:44.776Z,17088
2022-09-09T14:36:44.685Z,8585
2022-09-09T14:37:44.693Z,8922
2022-09-09T14:38:44.696Z,17235
2022-09-09T14:39:44.808Z,17068
2022-09-09T14:40:44.688Z,15654
2022-09-09T14:41:44.692Z,7656
2022-09-09T14:42:44.706Z,7000
2022-09-09T14:43:44.693Z,6900
2022-09-09T14:44:44.686Z,6983
2022-09-09T14:45:44.756Z,12465
2022-09-09T14:46:44.707Z,8978
2022-09-09T14:47:44.698Z,8978
2022-09-09T14:48:44.756Z,7182
2022-09-09T14:49:46.621Z,6602
2022-09-09T14:50:44.781Z,6217
2022-09-09T14:51:44.694Z,6053
2022-09-09T14:52:44.710Z,6340
2022-09-09T14:53:44.692Z,6747
2022-09-09T14:54:44.700Z,7029
2022-09-09T14:55:44.689Z,7630
2022-09-09T14:56:44.684Z,8358
2022-09-09T14:57:44.704Z,9059
2022-09-09T14:58:44.694Z,10880
2022-09-09T14:59:44.697Z,12447
2022-09-09T15:00:44.697Z,9147
2022-09-09T15:01:44.762Z,10227
2022-09-09T15:02:44.774Z,10692
2022-09-09T15:03:44.684Z,13643
2022-09-09T15:04:44.703Z,13910
2022-09-09T15:05:44.690Z,13372
2022-09-09T15:06:44.701Z,12924
2022-09-09T15:07:44.710Z,12614
2022-09-09T15:08:44.719Z,12242
2022-09-09T15:09:44.696Z,12006
2022-09-09T15:10:44.683Z,11588
2022-09-09T15:11:44.694Z,10128
2022-09-09T15:12:44.697Z,11599
2022-09-09T15:13:44.754Z,12445
2022-09-09T15:14:44.692Z,7243
2022-09-09T15:15:44.719Z,8830
2022-09-09T15:16:45.042Z,8445
2022-09-09T15:17:44.709Z,7499
2022-09-09T15:18:44.693Z,9477
2022-09-09T15:19:44.706Z,10651
2022-09-09T15:20:44.748Z,10334
2022-09-09T15:21:44.719Z,4191
2022-09-09T15:22:44.709Z,4182
2022-09-09T15:23:44.688Z,10069
2022-09-09T15:24:44.686Z,9933
2022-09-09T15:25:44.689Z,10712
2022-09-09T15:26:44.686Z,9918
2022-09-09T15:27:44.711Z,9315
2022-09-09T15:28:44.725Z,9645
2022-09-09T15:29:44.694Z,9354
2022-09-09T15:30:44.684Z,9157
2022-09-09T15:31:44.677Z,9004
2022-09-09T15:32:44.693Z,8775
2022-09-09T15:33:44.676Z,8616
2022-09-09T15:34:44.692Z,8500
2022-09-09T15:35:44.676Z,8364
2022-09-09T15:36:44.677Z,8143
2022-09-09T15:37:44.692Z,7975
2022-09-09T15:38:44.672Z,7852
2022-09-09T15:39:44.764Z,7706
2022-09-09T15:40:44.694Z,7461
2022-09-09T15:41:44.677Z,7182
2022-09-09T15:42:44.712Z,6941
2022-09-09T15:43:44.698Z,6760
2022-09-09T15:44:44.685Z,6521
2022-09-09T15:45:44.750Z,6360
2022-09-09T15:46:44.694Z,6231
2022-09-09T15:47:44.707Z,6231
2022-09-09T15:48:44.692Z,6110
2022-09-09T15:49:44.699Z,6012
2022-09-09T15:50:44.686Z,5837
2022-09-09T15:51:45.034Z,5769
2022-09-09T15:52:44.706Z,5632
2022-09-09T15:53:44.697Z,5489
2022-09-09T15:54:44.712Z,5243